Time;durP1;ratioP1;P1;durP2;ratioP2;P2;SDS_P1;SDS_P2;PMS_P1;PMS_P2;Temp;Humidity;BMP_temperature;BMP_pressure;BME280_temperature;BME280_humidity;BME280_pressure;Samples;Min_cycle;Max_cycle;Signal;HPM_P1;HPM_P2
2022/09/30 00:01:26;;;;;;;2.65;1.60;;;10.00;99.90;;;;;;6214491;23;20031;-78
2022/09/30 00:03:53;;;;;;;3.30;1.63;;;9.90;99.90;;;;;;6189878;23;20018;-78
2022/09/30 00:06:19;;;;;;;2.25;1.30;;;9.90;99.90;;;;;;6214454;23;20020;-78
2022/09/30 00:08:46;;;;;;;2.53;1.50;;;9.90;99.90;;;;;;6189349;23;20020;-80
2022/09/30 00:11:17;;;;;;;3.60;1.30;;;9.80;99.90;;;;;;6190292;23;20116;-79
2022/09/30 00:13:46;;;;;;;2.30;1.17;;;9.80;99.90;;;;;;6189208;23;20074;-80
2022/09/30 00:16:13;;;;;;;2.38;1.20;;;9.70;99.90;;;;;;6189951;23;20432;-80
2022/09/30 00:18:40;;;;;;;2.70;1.60;;;9.70;99.90;;;;;;6214921;23;20024;-80
2022/09/30 00:21:07;;;;;;;1.77;1.10;;;9.70;99.90;;;;;;6214864;23;20486;-78
2022/09/30 00:23:33;;;;;;;2.58;1.20;;;9.70;99.90;;;;;;6164716;23;20432;-79
2022/09/30 00:26:09;;;;;;;1.83;1.10;;;9.60;99.90;;;;;;6214617;23;20020;-78
2022/09/30 00:28:34;;;;;;;;;;;9.60;99.90;;;;;;6214168;23;20052;-78
2022/09/30 00:31:06;;;;;;;3.13;1.20;;;9.60;99.90;;;;;;6215289;23;19926;-78
2022/09/30 00:33:33;;;;;;;2.47;1.30;;;9.50;99.90;;;;;;6214935;23;20102;-78
2022/09/30 00:35:59;;;;;;;1.85;1.00;;;9.50;99.90;;;;;;6189758;23;20024;-78
2022/09/30 00:38:25;;;;;;;3.53;1.48;;;9.50;99.90;;;;;;6189490;23;20495;-78
2022/09/30 00:40:51;;;;;;;3.78;1.58;;;9.40;99.90;;;;;;6215603;23;20020;-77
2022/09/30 00:43:37;;;;;;;2.50;1.50;;;9.40;99.90;;;;;;6188875;23;20023;-78
2022/09/30 00:46:03;;;;;;;2.95;1.58;;;9.40;99.90;;;;;;6215140;23;20015;-78
2022/09/30 00:48:34;;;;;;;2.13;1.33;;;9.30;99.90;;;;;;6215357;23;20043;-78
2022/09/30 00:51:01;;;;;;;2.40;1.38;;;9.90;99.90;;;;;;6190376;23;20038;-78
2022/09/30 00:53:44;;;;;;;2.60;1.30;;;9.30;99.90;;;;;;6188925;23;20016;-78
2022/09/30 00:56:20;;;;;;;2.10;1.33;;;9.30;99.90;;;;;;6188041;23;20073;-79
2022/09/30 00:58:51;;;;;;;2.08;1.40;;;9.30;99.90;;;;;;6215465;23;20119;-79
2022/09/30 01:01:18;;;;;;;3.10;1.40;;;9.40;99.90;;;;;;6213110;23;20020;-79
2022/09/30 01:03:46;;;;;;;3.30;1.42;;;9.20;99.90;;;;;;6189075;23;20099;-79
2022/09/30 01:06:12;;;;;;;2.53;1.20;;;9.20;99.90;;;;;;6188832;23;20427;-79
2022/09/30 01:08:39;;;;;;;2.35;1.40;;;9.10;99.90;;;;;;6189973;23;20024;-79
2022/09/30 01:11:05;;;;;;;2.63;1.23;;;9.10;99.90;;;;;;6188872;23;20024;-80
2022/09/30 01:13:33;;;;;;;2.70;1.30;;;9.10;99.90;;;;;;6189496;23;20016;-79
2022/09/30 01:16:26;;;;;;;2.03;1.25;;;9.10;99.90;;;;;;6214841;23;20024;-78
2022/09/30 01:19:01;;;;;;;2.88;1.30;;;9.10;99.90;;;;;;6188433;22;20016;-78
2022/09/30 01:21:45;;;;;;;1.65;1.13;;;9.00;99.90;;;;;;6243732;22;20024;-78
2022/09/30 01:24:18;;;;;;;1.67;1.02;;;9.00;99.90;;;;;;6243568;22;20019;-79
2022/09/30 01:27:29;;;;;;;1.45;1.08;;;8.90;99.90;;;;;;6219851;22;20023;-78
2022/09/30 01:30:39;;;;;;;1.63;1.10;;;8.90;99.90;;;;;;6211512;22;20019;-78
2022/09/30 01:33:20;;;;;;;2.00;1.08;;;8.80;99.90;;;;;;6218479;22;20652;-79
2022/09/30 01:36:04;;;;;;;1.88;1.25;;;8.80;99.90;;;;;;6219552;22;20055;-79
2022/09/30 01:38:56;;;;;;;1.20;0.90;;;8.80;99.90;;;;;;6218573;22;20019;-78
2022/09/30 01:41:36;;;;;;;2.50;1.20;;;8.80;99.90;;;;;;6243620;22;20012;-79
2022/09/30 01:44:22;;;;;;;1.50;1.00;;;8.70;99.90;;;;;;6245218;22;20074;-78
2022/09/30 01:47:17;;;;;;;2.10;1.40;;;8.70;99.90;;;;;;6244977;22;20023;-79
2022/09/30 01:49:47;;;;;;;3.47;1.30;;;8.70;99.90;;;;;;6244961;22;20019;-78
2022/09/30 01:52:19;;;;;;;1.42;1.05;;;8.70;99.90;;;;;;6243914;22;20020;-78
2022/09/30 01:54:58;;;;;;;1.67;1.00;;;8.70;99.90;;;;;;6245009;22;20386;-78
2022/09/30 01:57:35;;;;;;;2.38;1.10;;;8.60;99.90;;;;;;6244548;22;20023;-78
2022/09/30 02:00:06;;;;;;;1.30;0.90;;;8.60;99.90;;;;;;6218741;22;20423;-78
2022/09/30 02:02:55;;;;;;;1.33;0.98;;;8.60;99.90;;;;;;6244386;22;20019;-78
2022/09/30 02:05:45;;;;;;;2.25;0.93;;;8.60;99.90;;;;;;6245056;22;20019;-79
2022/09/30 02:08:23;;;;;;;2.38;1.02;;;8.60;99.90;;;;;;6244110;22;20019;-78
2022/09/30 02:10:58;;;;;;;1.83;1.00;;;8.60;99.90;;;;;;6242564;22;20071;-79
2022/09/30 02:13:29;;;;;;;1.48;1.00;;;8.50;99.90;;;;;;6218725;22;20062;-78
2022/09/30 02:16:00;;;;;;;1.67;0.80;;;8.50;99.90;;;;;;6218859;22;20380;-78
2022/09/30 02:18:31;;;;;;;1.77;1.00;;;8.50;99.90;;;;;;6244241;22;20544;-78
2022/09/30 02:21:00;;;;;;;1.52;1.00;;;8.50;99.90;;;;;;6240667;22;20027;-78
2022/09/30 02:23:31;;;;;;;2.70;0.98;;;8.40;99.90;;;;;;6243192;22;20015;-78
2022/09/30 02:26:18;;;;;;;1.83;1.08;;;8.40;99.90;;;;;;6270116;22;20034;-78
2022/09/30 02:28:52;;;;;;;2.58;1.08;;;8.60;99.90;;;;;;6242562;22;20098;-78
2022/09/30 02:31:22;;;;;;;2.13;1.10;;;8.60;99.90;;;;;;6243405;22;20024;-79
2022/09/30 02:34:09;;;;;;;2.17;1.05;;;8.30;99.90;;;;;;6244723;22;20059;-78
2022/09/30 02:36:42;;;;;;;1.42;1.00;;;8.30;99.90;;;;;;6268724;22;20401;-78
2022/09/30 02:39:28;;;;;;;1.80;1.20;;;8.30;99.90;;;;;;6243791;22;20019;-78
2022/09/30 02:42:07;;;;;;;1.98;1.00;;;8.30;99.90;;;;;;6268980;22;20475;-78
2022/09/30 02:44:34;;;;;;;1.70;1.02;;;8.20;99.90;;;;;;6270130;22;20067;-78
2022/09/30 02:47:35;;;;;;;2.53;1.20;;;8.20;99.90;;;;;;6244303;22;20347;-78
2022/09/30 02:50:22;;;;;;;2.13;1.02;;;8.20;99.90;;;;;;6244519;22;20023;-78
2022/09/30 02:53:18;;;;;;;2.40;1.10;;;8.20;99.90;;;;;;6243004;22;20419;-78
2022/09/30 02:56:21;;;;;;;2.55;1.10;;;8.10;99.90;;;;;;6270012;22;20039;-78
2022/09/30 02:58:50;;;;;;;1.95;1.05;;;8.10;99.90;;;;;;6270255;22;20062;-78
2022/09/30 03:01:16;;;;;;;1.67;1.10;;;8.10;99.90;;;;;;6243388;22;20362;-78
2022/09/30 03:03:46;;;;;;;1.52;1.10;;;8.10;99.90;;;;;;6268458;22;20094;-78
2022/09/30 03:06:12;;;;;;;2.75;1.30;;;8.00;99.90;;;;;;6243920;22;20019;-78
2022/09/30 03:08:38;;;;;;;1.40;1.10;;;8.00;99.90;;;;;;6244132;22;20020;-78
2022/09/30 03:11:05;;;;;;;1.77;1.00;;;8.00;99.90;;;;;;6269836;22;20080;-78
2022/09/30 03:13:50;;;;;;;3.35;0.88;;;8.00;99.90;;;;;;6268916;22;20020;-78
2022/09/30 03:16:30;;;;;;;3.53;0.82;;;8.00;99.90;;;;;;6269626;22;20031;-78
2022/09/30 03:19:11;;;;;;;1.83;1.00;;;7.90;99.90;;;;;;6244314;22;20016;-78
2022/09/30 03:21:40;;;;;;;1.30;0.95;;;7.90;99.90;;;;;;6244215;22;20024;-78
2022/09/30 03:24:14;;;;;;;2.65;1.10;;;7.90;99.90;;;;;;6218863;22;20024;-78
2022/09/30 03:26:52;;;;;;;1.25;0.98;;;7.90;99.90;;;;;;6243544;22;20019;-78
2022/09/30 03:29:23;;;;;;;1.27;0.98;;;7.90;99.90;;;;;;6244129;22;20094;-78
2022/09/30 03:32:26;;;;;;;1.50;0.90;;;8.00;99.90;;;;;;6218281;22;20015;-78
2022/09/30 03:35:16;;;;;;;1.08;0.80;;;7.90;99.90;;;;;;6219260;22;20027;-79
2022/09/30 03:37:56;;;;;;;1.40;0.88;;;7.90;99.90;;;;;;6220789;22;20020;-78
2022/09/30 03:40:26;;;;;;;0.63;0.63;;;7.80;99.90;;;;;;6245664;22;20020;-78
2022/09/30 03:42:59;;;;;;;1.00;0.70;;;7.70;99.90;;;;;;6244643;22;20099;-78
2022/09/30 03:45:32;;;;;;;2.55;0.88;;;7.60;99.90;;;;;;6245230;22;20015;-78
2022/09/30 03:48:03;;;;;;;2.60;1.30;;;7.60;99.90;;;;;;6220806;22;20054;-78
2022/09/30 03:50:32;;;;;;;2.53;1.10;;;7.50;99.90;;;;;;6244617;22;20023;-79
2022/09/30 03:52:58;;;;;;;1.20;0.90;;;8.10;99.90;;;;;;6219354;22;20016;-78
2022/09/30 03:55:25;;;;;;;1.77;1.13;;;7.70;99.90;;;;;;6220089;22;20012;-78
2022/09/30 03:57:51;;;;;;;1.20;0.90;;;7.50;99.90;;;;;;6195377;22;20030;-78
2022/09/30 04:00:17;;;;;;;2.00;1.00;;;7.40;99.90;;;;;;6219991;22;20330;-78
2022/09/30 04:02:44;;;;;;;1.13;1.00;;;7.40;99.90;;;;;;6195317;22;20027;-78
2022/09/30 04:05:10;;;;;;;1.80;1.20;;;7.30;99.90;;;;;;6220300;22;20015;-78
2022/09/30 04:07:36;;;;;;;2.95;1.35;;;7.30;99.90;;;;;;6218562;22;20024;-78
2022/09/30 04:10:03;;;;;;;1.92;1.30;;;7.40;99.90;;;;;;6195840;22;20023;-78
2022/09/30 04:12:28;;;;;;;2.95;1.40;;;7.30;99.90;;;;;;6244625;22;20099;-78
2022/09/30 04:14:54;;;;;;;6.82;1.45;;;7.30;99.90;;;;;;6246204;22;20406;-78
2022/09/30 04:17:20;;;;;;;6.57;1.58;;;7.40;99.90;;;;;;6245264;22;20016;-78
2022/09/30 04:19:46;;;;;;;2.83;1.33;;;7.40;99.90;;;;;;6226265;22;20098;-78
2022/09/30 04:22:11;;;;;;;1.67;1.10;;;7.30;99.90;;;;;;6270626;22;20516;-78
2022/09/30 04:24:38;;;;;;;11.65;1.88;;;7.30;99.90;;;;;;6271167;22;20039;-78
2022/09/30 04:27:04;;;;;;;6.70;1.55;;;7.50;99.90;;;;;;6245657;22;20011;-78
2022/09/30 04:29:30;;;;;;;11.48;1.85;;;8.10;99.90;;;;;;6245657;22;20020;-78
2022/09/30 04:31:56;;;;;;;5.80;1.60;;;7.20;99.90;;;;;;6245317;22;20023;-77
2022/09/30 04:34:21;;;;;;;16.15;2.25;;;7.20;99.90;;;;;;6219081;22;20024;-78
2022/09/30 04:36:47;;;;;;;4.90;1.38;;;7.20;99.90;;;;;;6270708;22;20027;-78
2022/09/30 04:39:13;;;;;;;5.22;1.67;;;7.20;99.90;;;;;;6219694;22;20038;-78
2022/09/30 04:41:39;;;;;;;1.83;1.33;;;7.00;99.90;;;;;;6270203;22;20016;-78
2022/09/30 04:44:05;;;;;;;1.95;1.48;;;7.00;99.90;;;;;;6220976;22;20063;-78
2022/09/30 04:46:35;;;;;;;1.90;1.40;;;7.00;99.90;;;;;;6244679;22;20023;-78
2022/09/30 04:49:02;;;;;;;2.38;1.23;;;7.00;99.90;;;;;;6271715;22;20051;-78
2022/09/30 04:51:28;;;;;;;2.97;1.60;;;7.00;99.90;;;;;;6245190;22;20081;-78
2022/09/30 04:53:55;;;;;;;1.75;1.30;;;7.00;99.90;;;;;;6219207;22;20550;-78
2022/09/30 04:56:22;;;;;;;3.33;1.30;;;8.00;99.90;;;;;;6245630;22;20020;-78
2022/09/30 04:58:48;;;;;;;1.88;1.42;;;6.90;99.90;;;;;;6245690;22;20024;-78
2022/09/30 05:01:16;;;;;;;2.30;1.60;;;6.90;99.90;;;;;;6219740;22;20019;-76
2022/09/30 05:03:45;;;;;;;2.70;1.73;;;6.90;99.90;;;;;;6270116;22;20016;-78
2022/09/30 05:06:13;;;;;;;2.28;1.30;;;6.90;99.90;;;;;;6220538;22;20015;-78
2022/09/30 05:08:38;;;;;;;2.13;1.40;;;6.90;99.90;;;;;;6269764;22;20046;-78
2022/09/30 05:11:09;;;;;;;2.25;1.48;;;6.90;99.90;;;;;;6219322;22;20390;-78
2022/09/30 05:13:40;;;;;;;3.60;1.70;;;6.90;99.90;;;;;;6270443;22;20024;-78
2022/09/30 05:16:07;;;;;;;1.92;1.17;;;6.90;99.90;;;;;;6271558;22;20085;-79
2022/09/30 05:18:34;;;;;;;1.95;1.50;;;6.90;99.90;;;;;;6244770;22;20015;-78
2022/09/30 05:21:01;;;;;;;6.45;1.50;;;6.90;99.90;;;;;;6199713;23;20344;-78
2022/09/30 05:23:32;;;;;;;2.10;1.30;;;6.90;99.90;;;;;;6188377;23;20105;-78
2022/09/30 05:25:59;;;;;;;2.63;1.35;;;8.10;99.90;;;;;;6189862;23;20031;-78
2022/09/30 05:28:25;;;;;;;2.10;1.40;;;6.90;99.90;;;;;;6189033;23;20024;-78
2022/09/30 05:30:58;;;;;;;2.22;1.13;;;6.80;99.90;;;;;;6214854;23;20024;-78
2022/09/30 05:33:24;;;;;;;3.67;1.48;;;6.10;99.90;;;;;;6189005;23;20043;-78
2022/09/30 05:35:50;;;;;;;3.80;1.23;;;6.80;99.90;;;;;;6213960;23;20016;-78
2022/09/30 05:38:16;;;;;;;3.22;1.48;;;6.80;99.90;;;;;;6190045;23;20028;-78
2022/09/30 05:40:41;;;;;;;2.60;1.45;;;7.20;99.90;;;;;;6188868;23;20019;-78
2022/09/30 05:43:08;;;;;;;1.88;1.25;;;6.80;99.90;;;;;;6164435;23;20343;-79
2022/09/30 05:45:34;;;;;;;2.30;1.50;;;6.80;99.90;;;;;;6189317;23;20052;-77
2022/09/30 05:48:01;;;;;;;2.08;1.48;;;6.80;99.90;;;;;;6189170;23;20016;-78
2022/09/30 05:50:27;;;;;;;3.13;1.50;;;6.80;99.90;;;;;;6189472;23;20020;-78
2022/09/30 05:52:52;;;;;;;2.75;1.45;;;6.80;99.90;;;;;;6214356;23;20459;-78
2022/09/30 05:55:21;;;;;;;2.80;1.40;;;6.80;99.90;;;;;;6163877;23;20062;-78
2022/09/30 05:57:48;;;;;;;1.83;1.25;;;6.80;99.90;;;;;;6214570;23;20056;-78
2022/09/30 06:00:14;;;;;;;2.35;1.10;;;6.80;99.90;;;;;;6213991;23;20016;-79
2022/09/30 06:02:40;;;;;;;2.40;1.67;;;7.00;99.90;;;;;;6212402;23;20039;-79
2022/09/30 06:05:10;;;;;;;2.30;1.30;;;8.20;99.90;;;;;;6187731;23;20463;-79
2022/09/30 06:07:37;;;;;;;2.25;1.20;;;6.90;99.90;;;;;;6211614;23;20021;-80
2022/09/30 06:10:06;;;;;;;3.22;1.30;;;6.90;99.90;;;;;;6211516;23;20075;-79
2022/09/30 06:12:35;;;;;;;1.50;1.25;;;6.90;99.90;;;;;;6210125;23;20016;-79
2022/09/30 06:15:01;;;;;;;1.75;1.30;;;7.10;99.90;;;;;;6212773;23;20016;-80
2022/09/30 06:17:27;;;;;;;2.10;1.30;;;7.00;99.90;;;;;;6189081;23;20111;-81
2022/09/30 06:19:53;;;;;;;1.83;1.27;;;7.00;99.90;;;;;;6213811;23;20027;-79
2022/09/30 06:22:18;;;;;;;1.73;1.27;;;7.00;99.90;;;;;;6213720;23;20074;-80
2022/09/30 06:24:45;;;;;;;2.15;1.45;;;7.10;99.90;;;;;;6189180;23;20016;-80
2022/09/30 06:27:11;;;;;;;2.20;1.40;;;7.10;99.90;;;;;;6214284;23;20436;-79
2022/09/30 06:29:37;;;;;;;1.75;1.33;;;7.10;99.90;;;;;;6213536;23;20023;-80
2022/09/30 06:32:03;;;;;;;3.13;1.60;;;7.10;99.90;;;;;;6189407;23;20013;-79
2022/09/30 06:34:29;;;;;;;2.10;1.30;;;7.20;99.90;;;;;;6213875;23;20056;-79
2022/09/30 06:36:55;;;;;;;2.45;1.50;;;7.20;99.90;;;;;;6189471;23;20028;-78
2022/09/30 06:39:20;;;;;;;3.17;1.60;;;7.50;99.90;;;;;;6189080;23;20016;-79
2022/09/30 06:41:46;;;;;;;3.65;1.58;;;7.40;99.90;;;;;;6163910;23;20062;-79
2022/09/30 06:44:12;;;;;;;2.58;1.42;;;7.50;99.90;;;;;;6189602;23;20103;-79
2022/09/30 06:46:38;;;;;;;1.88;1.40;;;8.30;99.90;;;;;;6187623;23;20020;-80
2022/09/30 06:49:05;;;;;;;3.05;1.63;;;7.60;99.90;;;;;;6186124;23;20365;-78
2022/09/30 06:51:32;;;;;;;2.15;1.50;;;7.40;99.90;;;;;;6137096;23;20020;-78
2022/09/30 06:53:59;;;;;;;1.98;1.30;;;7.50;99.90;;;;;;6187603;23;20340;-78
2022/09/30 06:56:26;;;;;;;4.63;3.13;;;7.50;99.90;;;;;;6162335;23;20439;-79
2022/09/30 06:58:52;;;;;;;4.82;2.78;;;7.60;99.90;;;;;;6162250;23;20058;-79
2022/09/30 07:01:19;;;;;;;5.05;2.50;;;7.60;99.90;;;;;;6187419;23;20023;-78
2022/09/30 07:03:46;;;;;;;2.53;1.88;;;7.70;99.90;;;;;;6211181;23;20020;-79
2022/09/30 07:06:13;;;;;;;4.63;2.70;;;7.80;99.90;;;;;;6187211;23;20082;-78
2022/09/30 07:08:39;;;;;;;3.60;2.00;;;7.80;99.90;;;;;;6212048;23;20098;-77
2022/09/30 07:11:13;;;;;;;2.78;1.95;;;8.30;99.90;;;;;;6165060;23;20051;-78
2022/09/30 07:13:44;;;;;;;4.60;2.05;;;7.90;99.90;;;;;;6214129;23;20036;-78
2022/09/30 07:16:12;;;;;;;4.38;2.40;;;8.00;99.90;;;;;;6190510;23;20340;-78
2022/09/30 07:18:41;;;;;;;2.65;1.95;;;8.00;99.90;;;;;;6189664;23;20498;-78
2022/09/30 07:21:06;;;;;;;3.53;1.85;;;8.40;99.90;;;;;;6191772;23;20091;-78
2022/09/30 07:23:32;;;;;;;2.75;1.70;;;8.20;99.90;;;;;;6187991;23;20062;-77
2022/09/30 07:26:03;;;;;;;4.13;1.70;;;8.30;99.90;;;;;;6214386;23;20020;-77
2022/09/30 07:28:31;;;;;;;3.65;2.03;;;9.50;99.90;;;;;;6215108;23;20019;-77
2022/09/30 07:31:05;;;;;;;4.40;2.30;;;8.50;99.90;;;;;;6191287;23;20149;-78
2022/09/30 07:33:32;;;;;;;3.63;2.20;;;8.60;99.90;;;;;;6189870;23;20103;-77
2022/09/30 07:35:59;;;;;;;5.10;2.85;;;8.90;99.90;;;;;;6165418;23;20020;-77
2022/09/30 07:38:28;;;;;;;3.63;2.67;;;9.10;99.90;;;;;;6214828;23;20313;-78
2022/09/30 07:41:02;;;;;;;4.85;2.28;;;9.30;99.90;;;;;;6214374;23;20330;-78
2022/09/30 07:43:39;;;;;;;4.28;2.30;;;9.40;99.90;;;;;;6215366;23;20313;-78
2022/09/30 07:46:14;;;;;;;3.30;2.58;;;9.60;99.90;;;;;;6191085;23;20086;-78
2022/09/30 07:48:43;;;;;;;2.97;2.65;;;9.90;99.90;;;;;;6214511;23;20073;-78
2022/09/30 07:51:15;;;;;;;3.38;2.53;;;10.00;99.90;;;;;;6215190;23;20048;-79
2022/09/30 07:53:42;;;;;;;3.17;2.58;;;10.10;99.90;;;;;;6215017;23;20355;-80
2022/09/30 07:56:09;;;;;;;5.45;2.97;;;10.40;99.90;;;;;;6214436;23;20517;-80
2022/09/30 07:58:35;;;;;;;3.85;2.50;;;10.60;99.90;;;;;;6140802;23;20031;-80
2022/09/30 08:01:02;;;;;;;3.08;2.60;;;10.90;99.90;;;;;;6214968;23;20070;-80
2022/09/30 08:03:28;;;;;;;4.72;2.60;;;11.10;99.90;;;;;;6187899;23;20461;-80
2022/09/30 08:06:03;;;;;;;3.83;3.03;;;11.40;99.90;;;;;;6215164;23;20059;-80
2022/09/30 08:08:29;;;;;;;3.53;2.30;;;11.70;99.90;;;;;;6215827;23;20350;-80
2022/09/30 08:10:59;;;;;;;3.40;2.45;;;12.00;99.90;;;;;;6188933;23;20016;-81
2022/09/30 08:13:24;;;;;;;4.40;2.50;;;12.30;99.90;;;;;;6214876;23;20354;-80
2022/09/30 08:15:50;;;;;;;3.22;2.03;;;12.60;99.90;;;;;;6188772;23;20441;-80
2022/09/30 08:18:17;;;;;;;2.50;2.08;;;12.80;99.90;;;;;;6215616;23;20031;-81
2022/09/30 08:20:43;;;;;;;2.03;1.67;;;13.10;99.90;;;;;;6189440;23;20024;-81
2022/09/30 08:23:08;;;;;;;3.42;1.90;;;13.40;99.90;;;;;;6189487;23;20016;-83
2022/09/30 08:25:35;;;;;;;2.42;1.70;;;13.60;99.90;;;;;;6163977;23;20662;-83
2022/09/30 08:28:00;;;;;;;2.30;1.30;;;13.80;99.90;;;;;;6188579;23;20016;-81
2022/09/30 08:30:26;;;;;;;1.70;1.20;;;14.10;99.90;;;;;;6214415;23;20440;-81
2022/09/30 08:32:52;;;;;;;2.60;1.10;;;14.30;99.90;;;;;;6187562;23;20016;-81
2022/09/30 08:35:18;;;;;;;2.42;1.30;;;14.50;99.90;;;;;;6187974;23;20249;-82
2022/09/30 08:37:43;;;;;;;1.00;0.82;;;14.70;99.90;;;;;;6163410;23;20439;-82
2022/09/30 08:40:30;;;;;;;2.08;0.88;;;14.90;99.90;;;;;;6164307;23;20035;-82
2022/09/30 08:43:48;;;;;;;1.40;0.77;;;15.10;99.90;;;;;;6188518;23;20391;-80
2022/09/30 08:46:43;;;;;;;0.80;0.60;;;15.20;99.90;;;;;;6209623;23;20012;-81
2022/09/30 08:49:28;;;;;;;0.98;0.70;;;15.40;99.90;;;;;;6186951;23;20508;-81
2022/09/30 08:51:56;;;;;;;1.02;0.70;;;15.50;99.90;;;;;;6186347;23;20027;-81
2022/09/30 08:54:30;;;;;;;1.45;0.80;;;15.60;99.90;;;;;;6213262;23;20129;-80
2022/09/30 08:56:57;;;;;;;2.17;0.93;;;15.60;99.90;;;;;;6187940;23;20024;-81
2022/09/30 08:59:32;;;;;;;2.85;1.38;;;15.70;99.90;;;;;;6161476;23;20027;-81
2022/09/30 09:02:03;;;;;;;2.90;1.38;;;15.70;99.90;;;;;;6211124;23;20012;-81
2022/09/30 09:04:29;;;;;;;2.63;1.48;;;15.70;99.90;;;;;;6211829;23;20447;-80
2022/09/30 09:07:23;;;;;;;1.85;1.00;;;15.70;99.90;;;;;;6185065;23;20058;-80
2022/09/30 09:09:49;;;;;;;2.47;0.88;;;15.70;99.90;;;;;;6185861;23;20020;-79
2022/09/30 09:12:26;;;;;;;1.65;0.90;;;15.70;99.90;;;;;;6185527;23;20081;-78
2022/09/30 09:15:24;;;;;;;3.10;1.00;;;15.80;99.90;;;;;;6184938;23;20016;-79
2022/09/30 09:18:09;;;;;;;2.67;1.20;;;15.80;99.90;;;;;;6184268;23;20448;-79
2022/09/30 09:20:40;;;;;;;2.40;1.25;;;15.90;99.90;;;;;;6190654;23;20020;-81
2022/09/30 09:23:12;;;;;;;2.10;1.38;;;16.10;99.90;;;;;;6188027;23;20028;-81
2022/09/30 09:25:38;;;;;;;2.65;1.30;;;16.20;99.90;;;;;;6186770;23;20020;-81
2022/09/30 09:28:32;;;;;;;4.50;1.40;;;16.40;99.90;;;;;;6160613;23;20579;-83
2022/09/30 09:30:59;;;;;;;2.65;1.20;;;16.50;99.90;;;;;;6167044;23;20348;-82
2022/09/30 09:33:46;;;;;;;1.65;0.90;;;16.80;99.90;;;;;;6186305;23;20016;-84
2022/09/30 09:36:40;;;;;;;1.33;0.70;;;17.10;99.90;;;;;;6138646;23;20024;-82
2022/09/30 09:39:43;;;;;;;1.52;0.73;;;17.30;99.90;;;;;;6186019;23;20024;-82
2022/09/30 09:42:30;;;;;;;1.00;0.60;;;17.50;99.90;;;;;;6185353;23;20024;-82
2022/09/30 09:45:10;;;;;;;1.58;0.50;;;17.80;99.90;;;;;;6184736;23;20451;-82
2022/09/30 09:47:36;;;;;;;1.48;0.73;;;18.00;99.90;;;;;;6185767;23;20016;-81
2022/09/30 09:50:03;;;;;;;1.38;0.82;;;18.10;99.90;;;;;;6160782;23;20378;-82
2022/09/30 09:53:07;;;;;;;2.00;0.90;;;18.20;99.90;;;;;;6211304;23;20074;-83
2022/09/30 09:55:34;;;;;;;2.90;0.90;;;18.20;99.90;;;;;;6211721;23;20023;-82
2022/09/30 09:58:10;;;;;;;3.92;1.00;;;18.20;99.90;;;;;;6184356;23;20024;-82
2022/09/30 10:03:23;;;;;;;2.15;1.05;;;18.00;99.90;;;;;;6212582;23;20109;-81
2022/09/30 10:06:05;;;;;;;2.30;1.10;;;17.90;99.90;;;;;;6186078;23;20031;-80
2022/09/30 10:08:52;;;;;;;3.67;1.45;;;17.80;99.90;;;;;;6184891;23;20068;-81
2022/09/30 10:11:23;;;;;;;4.50;1.40;;;17.60;99.90;;;;;;6207546;23;20027;-81
2022/09/30 10:13:51;;;;;;;2.42;1.48;;;17.40;99.90;;;;;;6182795;23;20391;-80
2022/09/30 10:16:34;;;;;;;2.70;1.45;;;17.20;99.90;;;;;;6207729;23;20027;-81
2022/09/30 10:19:02;;;;;;;3.35;1.60;;;17.10;99.90;;;;;;6184805;23;20452;-83
2022/09/30 10:21:29;;;;;;;1.98;1.40;;;17.00;99.90;;;;;;6209484;23;20470;-81
2022/09/30 10:23:59;;;;;;;2.40;1.23;;;16.90;99.90;;;;;;6159590;23;20023;-81
2022/09/30 10:26:28;;;;;;;1.83;1.25;;;16.90;99.90;;;;;;6208587;23;20459;-82
2022/09/30 10:29:03;;;;;;;4.55;1.55;;;16.80;99.90;;;;;;6209776;23;20497;-79
2022/09/30 10:31:42;;;;;;;2.60;1.40;;;16.90;99.90;;;;;;6209321;23;20023;-81
2022/09/30 10:34:25;;;;;;;2.40;1.40;;;17.00;99.90;;;;;;6183807;23;20020;-79
2022/09/30 10:36:52;;;;;;;2.72;1.52;;;17.10;99.90;;;;;;6210792;23;20424;-84
2022/09/30 10:39:22;;;;;;;2.63;1.60;;;17.30;99.90;;;;;;6187490;23;20051;-84
2022/09/30 10:41:49;;;;;;;3.10;1.80;;;17.40;99.90;;;;;;6211250;23;20351;-79
2022/09/30 10:44:18;;;;;;;2.40;1.63;;;17.60;99.90;;;;;;6186163;23;20020;-81
2022/09/30 10:46:47;;;;;;;3.50;1.70;;;17.70;99.90;;;;;;6186794;23;20027;-84
2022/09/30 10:49:34;;;;;;;3.25;1.80;;;17.80;99.90;;;;;;6187334;23;20506;-84
2022/09/30 10:52:01;;;;;;;2.97;1.63;;;18.00;99.90;;;;;;6186016;23;20443;-84
2022/09/30 10:54:46;;;;;;;3.88;2.00;;;18.30;99.90;;;;;;6187145;23;20027;-86
2022/09/30 10:57:41;;;;;;;2.08;1.50;;;18.60;99.90;;;;;;6186800;23;20066;-83
2022/09/30 11:00:14;;;;;;;3.47;1.70;;;18.90;99.90;;;;;;6185228;23;20391;-85
2022/09/30 11:03:19;;;;;;;3.45;1.83;;;19.30;99.90;;;;;;6186066;23;20016;-84
2022/09/30 11:05:48;;;;;;;2.20;1.33;;;19.60;99.90;;;;;;6211880;23;20047;-87
2022/09/30 11:08:51;;;;;;;2.58;1.50;;;20.00;99.90;;;;;;6187082;23;20027;-85
2022/09/30 11:11:23;;;;;;;2.50;1.75;;;20.30;99.90;;;;;;6211198;23;20020;-85
2022/09/30 11:14:07;;;;;;;2.45;1.75;;;20.80;99.90;;;;;;6184654;23;20094;-84
2022/09/30 11:17:00;;;;;;;2.88;1.60;;;20.80;99.90;;;;;;6185315;23;20099;-84
2022/09/30 11:19:37;;;;;;;1.85;1.30;;;20.90;99.90;;;;;;6186127;22;20039;-85
2022/09/30 11:22:36;;;;;;;2.08;1.17;;;21.60;99.90;;;;;;6186954;23;20024;-84
2022/09/30 11:25:02;;;;;;;1.92;1.15;;;21.30;99.90;;;;;;6185800;23;20016;-85
2022/09/30 11:27:41;;;;;;;4.20;1.00;;;21.40;99.90;;;;;;6161861;23;20024;-87
2022/09/30 11:30:07;;;;;;;2.28;1.35;;;21.90;99.90;;;;;;6185597;23;20020;-84
2022/09/30 11:32:58;;;;;;;3.22;0.95;;;22.20;99.90;;;;;;6211497;23;20024;-84
2022/09/30 11:36:07;;;;;;;2.17;1.10;;;22.80;99.90;;;;;;6185953;23;20082;-84
2022/09/30 11:38:39;;;;;;;1.90;1.05;;;23.40;99.60;;;;;;6160887;23;20190;-85
2022/09/30 11:41:15;;;;;;;1.40;0.75;;;24.10;99.90;;;;;;6209688;23;20039;-85
2022/09/30 11:43:50;;;;;;;;;;;24.60;99.10;;;;;;6186965;23;20099;-85
2022/09/30 11:46:31;;;;;;;3.40;0.98;;;25.30;97.10;;;;;;6211499;23;19942;-86
2022/09/30 11:49:32;;;;;;;1.08;0.90;;;25.80;97.40;;;;;;6185272;23;20099;-87
2022/09/30 11:52:30;;;;;;;2.45;1.00;;;26.30;95.50;;;;;;6209846;23;20027;-88
2022/09/30 11:55:22;;;;;;;5.85;0.82;;;26.60;94.30;;;;;;6176088;23;20020;-86
2022/09/30 11:58:37;;;;;;;6.03;1.00;;;27.10;92.30;;;;;;6187554;23;20023;-88
2022/09/30 12:01:14;;;;;;;1.80;0.80;;;27.30;90.40;;;;;;6185040;23;20317;-87
2022/09/30 12:03:46;;;;;;;1.85;0.60;;;27.40;90.10;;;;;;6189052;23;20541;-85
2022/09/30 12:06:36;;;;;;;0.82;0.57;;;27.40;90.80;;;;;;6189181;23;20397;-85
2022/09/30 12:09:15;;;;;;;0.85;0.47;;;27.40;89.30;;;;;;6188405;23;20098;-84
2022/09/30 12:11:45;;;;;;;1.90;0.73;;;27.50;90.20;;;;;;6213368;23;20020;-84
2022/09/30 12:14:39;;;;;;;3.65;0.57;;;27.40;89.70;;;;;;6211930;23;20023;-83
2022/09/30 12:17:36;;;;;;;1.02;0.50;;;27.40;84.70;;;;;;6185505;23;20035;-83
2022/09/30 12:20:14;;;;;;;0.57;0.40;;;27.60;85.00;;;;;;6185834;23;20252;-82
2022/09/30 12:22:43;;;;;;;0.80;0.60;;;27.60;84.70;;;;;;6210174;23;20452;-81
2022/09/30 12:25:57;;;;;;;1.88;0.60;;;27.30;85.60;;;;;;6185780;23;20034;-81
2022/09/30 12:31:43;;;;;;;1.10;0.70;;;27.10;85.90;;;;;;6210806;23;20786;-80
2022/09/30 12:34:30;;;;;;;2.78;0.93;;;26.90;86.80;;;;;;6238546;23;20042;-80
2022/09/30 12:37:22;;;;;;;1.70;0.90;;;26.70;87.90;;;;;;6212111;23;20020;-81
2022/09/30 12:40:03;;;;;;;3.25;1.10;;;26.60;88.40;;;;;;6112469;23;20027;-80
2022/09/30 12:42:43;;;;;;;2.65;1.10;;;26.50;88.20;;;;;;6211726;23;20016;-80
2022/09/30 12:45:22;;;;;;;3.50;1.52;;;26.40;87.80;;;;;;6187008;23;20023;-80
2022/09/30 12:47:54;;;;;;;2.95;1.48;;;26.30;90.00;;;;;;6187162;23;20102;-81
2022/09/30 12:50:27;;;;;;;3.55;1.70;;;26.10;89.20;;;;;;6212138;23;20020;-81
2022/09/30 12:52:56;;;;;;;3.05;1.40;;;26.10;90.10;;;;;;6210786;23;20045;-81
2022/09/30 12:55:29;;;;;;;4.68;1.60;;;26.00;89.70;;;;;;6187379;23;20099;-81
2022/09/30 12:58:00;;;;;;;2.67;1.30;;;25.90;88.90;;;;;;6187306;23;20042;-80
2022/09/30 13:00:33;;;;;;;2.45;1.30;;;25.80;89.40;;;;;;6212286;23;20074;-80
2022/09/30 13:03:04;;;;;;;3.83;1.50;;;25.70;89.30;;;;;;6212370;23;20023;-80
2022/09/30 13:05:29;;;;;;;2.80;1.75;;;25.60;88.90;;;;;;6213166;23;20020;-80
2022/09/30 13:08:04;;;;;;;3.10;2.00;;;25.30;89.80;;;;;;6212222;23;20027;-80
2022/09/30 13:10:36;;;;;;;2.97;1.80;;;25.00;90.30;;;;;;6188047;23;20321;-81
2022/09/30 13:13:23;;;;;;;3.45;2.00;;;24.90;90.80;;;;;;6185841;23;20352;-80
2022/09/30 13:15:51;;;;;;;3.90;3.08;;;24.50;90.60;;;;;;6187762;23;20024;-81
2022/09/30 13:18:19;;;;;;;10.45;3.15;;;24.00;91.80;;;;;;6186359;23;20018;-80
2022/09/30 13:21:03;;;;;;;3.45;2.80;;;23.50;92.20;;;;;;6186963;23;20024;-80
2022/09/30 13:23:41;;;;;;;4.03;2.78;;;22.80;93.00;;;;;;6211847;23;20020;-80
2022/09/30 13:26:31;;;;;;;3.08;2.20;;;22.00;92.90;;;;;;6186828;23;20024;-80
2022/09/30 13:28:59;;;;;;;4.38;2.22;;;21.50;94.60;;;;;;6212562;23;20012;-80
2022/09/30 13:31:48;;;;;;;3.30;1.85;;;20.90;95.90;;;;;;6186952;23;20016;-79
2022/09/30 13:34:29;;;;;;;2.97;1.77;;;20.60;96.90;;;;;;6209634;23;20043;-81